createdAt,value
2022-08-22T00:01:17.852Z,19.32
2022-08-22T00:04:00.279Z,19.41
2022-08-22T00:06:43.745Z,19.39
2022-08-22T00:09:32.065Z,19.38
2022-08-22T00:12:23.461Z,18.36
2022-08-22T00:15:08.030Z,19.29
2022-08-22T00:18:35.592Z,19.30
2022-08-22T00:21:23.469Z,19.27
2022-08-22T00:24:22.787Z,19.10
2022-08-22T00:27:24.094Z,19.24
2022-08-22T00:30:03.000Z,18.92
2022-08-22T00:32:47.018Z,18.47
2022-08-22T00:35:43.039Z,18.92
2022-08-22T00:38:20.449Z,18.91
2022-08-22T00:41:48.665Z,19.19
2022-08-22T00:44:34.124Z,19.17
2022-08-22T00:47:21.482Z,19.14
2022-08-22T00:50:26.316Z,18.71
2022-08-22T00:53:47.373Z,18.15
2022-08-22T00:56:47.200Z,19.11
2022-08-22T00:59:47.909Z,19.10
2022-08-22T01:02:52.840Z,19.10
2022-08-22T01:05:35.170Z,19.13
2022-08-22T01:08:26.368Z,19.12
2022-08-22T01:11:35.255Z,19.08
2022-08-22T01:14:34.289Z,19.08
2022-08-22T01:17:44.281Z,19.06
2022-08-22T01:20:36.237Z,19.03
2022-08-22T01:23:36.266Z,18.52
2022-08-22T01:26:47.884Z,18.99
2022-08-22T01:30:03.846Z,18.87
2022-08-22T01:32:31.859Z,18.95
2022-08-22T01:35:23.273Z,18.94
2022-08-22T01:38:05.243Z,18.95
2022-08-22T01:41:00.536Z,18.93
2022-08-22T01:44:06.871Z,18.93
2022-08-22T01:47:02.766Z,18.95
2022-08-22T01:49:38.148Z,18.97
2022-08-22T01:52:13.082Z,18.91
2022-08-22T01:54:52.795Z,18.93
2022-08-22T01:57:19.828Z,18.69
2022-08-22T01:59:48.992Z,18.86
2022-08-22T02:02:34.523Z,19.01
2022-08-22T02:05:40.409Z,19.01
2022-08-22T02:08:36.919Z,18.76
2022-08-22T02:11:10.713Z,18.61
2022-08-22T02:14:15.005Z,18.90
2022-08-22T02:16:44.692Z,19.00
2022-08-22T02:19:11.833Z,19.03
2022-08-22T02:21:53.756Z,18.24
2022-08-22T02:24:33.316Z,19.02
2022-08-22T02:27:04.283Z,19.02
2022-08-22T02:29:50.674Z,18.62
2022-08-22T02:32:33.221Z,19.01
2022-08-22T02:35:18.731Z,19.02
2022-08-22T02:37:54.852Z,19.00
2022-08-22T02:40:34.038Z,19.00
2022-08-22T02:43:43.738Z,18.99
2022-08-22T02:46:32.873Z,18.80
2022-08-22T02:49:13.162Z,18.96
2022-08-22T02:51:50.041Z,18.79
2022-08-22T02:54:28.844Z,18.63
2022-08-22T02:57:30.642Z,18.90
2022-08-22T03:00:25.008Z,18.88
2022-08-22T03:02:59.285Z,18.87
2022-08-22T03:05:36.807Z,18.68
2022-08-22T03:08:13.174Z,18.88
2022-08-22T03:10:46.061Z,18.22
2022-08-22T03:13:18.853Z,18.46
2022-08-22T03:15:54.180Z,18.72
2022-08-22T03:18:57.245Z,18.81
2022-08-22T03:21:32.911Z,18.53
2022-08-22T03:24:23.561Z,18.55
2022-08-22T03:26:58.737Z,18.75
2022-08-22T03:29:33.116Z,18.72
2022-08-22T03:32:09.136Z,18.71
2022-08-22T03:34:36.276Z,18.31
2022-08-22T03:37:13.516Z,18.20
2022-08-22T03:39:55.593Z,17.92
2022-08-22T03:42:41.536Z,18.62
2022-08-22T03:45:32.962Z,18.61
2022-08-22T03:48:21.745Z,18.58
2022-08-22T03:50:56.012Z,18.57
2022-08-22T03:53:49.191Z,18.56
2022-08-22T03:56:25.168Z,18.54
2022-08-22T03:59:34.553Z,18.39
2022-08-22T04:02:24.649Z,18.53
2022-08-22T04:05:19.233Z,18.50
2022-08-22T04:08:05.088Z,18.33
2022-08-22T04:10:53.816Z,18.47
2022-08-22T04:13:50.055Z,18.44
2022-08-22T04:16:44.605Z,18.15
2022-08-22T04:19:21.857Z,18.44
2022-08-22T04:21:57.992Z,18.44
2022-08-22T04:24:37.421Z,18.27
2022-08-22T04:27:10.245Z,18.45
2022-08-22T04:30:09.700Z,18.07
2022-08-22T04:32:44.455Z,18.44
2022-08-22T04:35:11.272Z,18.40
2022-08-22T04:37:46.494Z,17.71
2022-08-22T04:40:37.323Z,18.36
2022-08-22T04:43:10.554Z,17.52
2022-08-22T04:45:48.891Z,18.35
2022-08-22T04:48:33.742Z,18.06
2022-08-22T04:51:11.358Z,18.36
2022-08-22T04:53:50.394Z,18.37
2022-08-22T04:56:25.834Z,18.39
2022-08-22T04:59:02.951Z,18.27
2022-08-22T05:01:48.203Z,18.38
2022-08-22T05:04:59.318Z,18.38
2022-08-22T05:07:33.938Z,18.21
2022-08-22T05:10:12.478Z,18.24
2022-08-22T05:13:10.530Z,18.36
2022-08-22T05:15:43.727Z,17.52
2022-08-22T05:18:14.267Z,18.36
2022-08-22T05:20:41.189Z,18.01
2022-08-22T05:23:35.801Z,18.16
2022-08-22T05:26:04.145Z,18.38
2022-08-22T05:28:53.591Z,17.83
2022-08-22T05:31:26.618Z,17.89
2022-08-22T05:33:57.169Z,18.22
2022-08-22T05:36:29.243Z,18.41
2022-08-22T05:39:03.941Z,18.44
2022-08-22T05:41:34.649Z,17.97
2022-08-22T05:44:05.194Z,18.38
2022-08-22T05:46:42.220Z,18.50
2022-08-22T05:49:37.110Z,18.50
2022-08-22T05:52:13.073Z,18.19
2022-08-22T05:54:52.939Z,18.10
2022-08-22T05:57:32.067Z,18.24
2022-08-22T06:00:20.380Z,18.26
2022-08-22T06:03:15.043Z,18.35
2022-08-22T06:05:43.162Z,17.61
2022-08-22T06:08:36.016Z,18.62
2022-08-22T06:11:07.723Z,18.38
2022-08-22T06:14:03.832Z,18.72
2022-08-22T06:16:33.892Z,18.75
2022-08-22T06:19:00.982Z,18.42
2022-08-22T06:21:38.670Z,18.52
2022-08-22T06:24:08.770Z,18.83
2022-08-22T06:26:38.342Z,18.55
2022-08-22T06:29:05.799Z,18.69
2022-08-22T06:31:47.422Z,18.24
2022-08-22T06:34:23.073Z,18.56
2022-08-22T06:36:50.763Z,18.84
2022-08-22T06:39:19.623Z,18.95
2022-08-22T06:42:03.269Z,18.77
2022-08-22T06:44:35.981Z,18.63
2022-08-22T06:47:06.748Z,18.68
2022-08-22T06:49:35.147Z,18.96
2022-08-22T06:52:07.512Z,18.97
2022-08-22T06:54:37.128Z,18.91
2022-08-22T06:57:05.416Z,18.98
2022-08-22T06:59:35.410Z,19.13
2022-08-22T07:02:15.921Z,17.87
2022-08-22T07:04:43.523Z,19.14
2022-08-22T07:07:10.479Z,18.82
2022-08-22T07:09:40.662Z,19.10
2022-08-22T07:12:21.274Z,18.99
2022-08-22T07:14:53.372Z,19.09
2022-08-22T07:17:59.210Z,19.02
2022-08-22T07:20:36.421Z,19.04
2022-08-22T07:23:06.941Z,19.25
2022-08-22T07:25:37.554Z,19.54
2022-08-22T07:28:09.648Z,19.76
2022-08-22T07:30:42.923Z,19.90
2022-08-22T07:33:47.003Z,20.13
2022-08-22T07:36:43.322Z,20.12
2022-08-22T07:39:27.269Z,20.18
2022-08-22T07:42:13.193Z,20.55
2022-08-22T07:45:09.557Z,20.65
2022-08-22T07:48:25.416Z,20.78
2022-08-22T07:50:53.041Z,20.78
2022-08-22T07:53:40.193Z,20.42
2022-08-22T07:56:11.000Z,20.71
2022-08-22T07:58:39.652Z,20.70
2022-08-22T08:01:08.960Z,20.60
2022-08-22T08:03:36.060Z,20.78
2022-08-22T08:06:03.180Z,20.94
2022-08-22T08:08:34.582Z,20.90
2022-08-22T08:11:02.102Z,20.96
2022-08-22T08:13:35.896Z,20.95
2022-08-22T08:16:04.522Z,21.32
2022-08-22T08:18:34.035Z,21.59
2022-08-22T08:21:04.590Z,21.05
2022-08-22T08:23:39.713Z,21.86
2022-08-22T08:26:12.419Z,21.67
2022-08-22T08:28:42.289Z,19.60
2022-08-22T08:31:32.181Z,22.34
2022-08-22T08:34:11.066Z,21.89
2022-08-22T08:36:40.133Z,21.95
2022-08-22T08:39:22.249Z,22.75
2022-08-22T08:41:55.213Z,22.86
2022-08-22T08:44:43.231Z,22.97
2022-08-22T08:47:33.764Z,23.02
2022-08-22T08:50:21.963Z,23.09
2022-08-22T08:53:00.919Z,23.22
2022-08-22T08:55:48.093Z,23.36
2022-08-22T08:58:32.013Z,23.49
2022-08-22T09:01:38.834Z,22.56
2022-08-22T09:04:21.818Z,23.44
2022-08-22T09:06:56.745Z,23.51
2022-08-22T09:09:45.712Z,23.67
2022-08-22T09:12:26.714Z,24.01
2022-08-22T09:15:14.357Z,24.08
2022-08-22T09:18:06.415Z,24.18
2022-08-22T09:20:51.839Z,23.50
2022-08-22T09:23:46.012Z,24.29
2022-08-22T09:26:48.954Z,24.27
2022-08-22T09:29:22.375Z,24.32
2022-08-22T09:31:57.078Z,23.61
2022-08-22T09:34:38.060Z,24.08
2022-08-22T09:37:21.263Z,24.43
2022-08-22T09:40:21.276Z,24.18
2022-08-22T09:43:05.492Z,24.04
2022-08-22T09:45:45.542Z,23.89
2022-08-22T09:48:27.310Z,22.93
2022-08-22T09:51:31.545Z,24.07
2022-08-22T09:54:22.978Z,24.24
2022-08-22T09:57:02.783Z,23.96
2022-08-22T09:59:36.902Z,24.26
2022-08-22T10:02:30.263Z,24.10
2022-08-22T10:05:04.167Z,24.25
2022-08-22T10:07:56.448Z,24.03
2022-08-22T10:10:50.182Z,24.30
2022-08-22T10:13:42.091Z,24.34
2022-08-22T10:16:20.846Z,24.36
2022-08-22T10:19:09.247Z,24.18
2022-08-22T10:21:46.425Z,24.49
2022-08-22T10:24:36.026Z,24.55
2022-08-22T10:27:15.741Z,24.55
2022-08-22T10:29:54.278Z,23.89
2022-08-22T10:32:30.786Z,24.60
2022-08-22T10:35:19.908Z,24.35
2022-08-22T10:37:58.891Z,24.62
2022-08-22T10:40:33.218Z,23.79
2022-08-22T10:43:13.202Z,24.65
2022-08-22T10:45:42.534Z,23.93
2022-08-22T10:48:10.546Z,24.67
2022-08-22T10:50:43.150Z,24.12
2022-08-22T10:53:33.025Z,24.45
2022-08-22T10:56:11.829Z,24.58
2022-08-22T10:59:04.145Z,24.56
2022-08-22T11:01:41.986Z,24.51
2022-08-22T11:04:28.303Z,24.46
2022-08-22T11:07:48.759Z,24.39
2022-08-22T11:10:40.053Z,24.23
2022-08-22T11:13:28.927Z,24.25
2022-08-22T11:16:07.212Z,24.35
2022-08-22T11:19:04.900Z,24.44
2022-08-22T11:22:20.662Z,24.46
2022-08-22T11:25:14.562Z,24.48
2022-08-22T11:28:03.674Z,24.52
2022-08-22T11:30:45.102Z,24.48
2022-08-22T11:33:21.941Z,24.11
2022-08-22T11:36:31.731Z,24.32
2022-08-22T11:39:23.945Z,24.27
2022-08-22T11:42:21.810Z,24.67
2022-08-22T11:45:04.138Z,24.52
2022-08-22T11:47:35.300Z,24.62
2022-08-22T11:50:05.582Z,24.87
2022-08-22T11:52:51.699Z,24.68
2022-08-22T11:55:20.310Z,24.98
2022-08-22T11:57:50.713Z,24.79
2022-08-22T12:00:25.537Z,25.09
2022-08-22T12:03:13.007Z,25.14
2022-08-22T12:05:52.525Z,24.82
2022-08-22T12:08:37.391Z,25.16
2022-08-22T12:11:19.536Z,25.19
2022-08-22T12:14:04.169Z,25.22
2022-08-22T12:16:52.315Z,25.25
2022-08-22T12:19:19.664Z,25.30
2022-08-22T12:22:26.685Z,24.99
2022-08-22T12:25:38.550Z,25.37
2022-08-22T12:28:53.761Z,25.25
2022-08-22T12:31:47.201Z,25.44
2022-08-22T12:34:38.898Z,25.49
2022-08-22T12:37:52.083Z,25.29
2022-08-22T12:41:08.159Z,25.56
2022-08-22T12:44:21.449Z,25.57
2022-08-22T12:47:25.667Z,25.44
2022-08-22T12:50:07.680Z,25.61
2022-08-22T12:52:48.489Z,25.71
2022-08-22T12:55:25.018Z,25.76
2022-08-22T12:58:13.756Z,25.60
2022-08-22T13:00:45.248Z,25.87
2022-08-22T13:03:40.386Z,25.89
2022-08-22T13:06:33.497Z,25.88
2022-08-22T13:09:01.781Z,25.88
2022-08-22T13:11:29.238Z,25.33
2022-08-22T13:13:59.037Z,24.88
2022-08-22T13:16:38.246Z,25.98
2022-08-22T13:19:13.571Z,25.64
2022-08-22T13:21:45.718Z,25.64
2022-08-22T13:24:22.544Z,25.52
2022-08-22T13:26:55.737Z,25.69
2022-08-22T13:29:39.614Z,25.92
2022-08-22T13:32:17.446Z,25.61
2022-08-22T13:34:46.642Z,25.48
2022-08-22T13:37:24.526Z,25.67
2022-08-22T13:39:53.990Z,25.84
2022-08-22T13:42:30.359Z,25.87
2022-08-22T13:45:02.589Z,25.84
2022-08-22T13:47:34.503Z,25.36
2022-08-22T13:50:14.946Z,25.80
2022-08-22T13:52:52.566Z,25.81
2022-08-22T13:55:34.278Z,25.74
2022-08-22T13:58:21.948Z,25.78
2022-08-22T14:01:01.212Z,25.74
2022-08-22T14:03:49.119Z,25.50
2022-08-22T14:06:35.470Z,25.61
2022-08-22T14:09:31.230Z,25.58
2022-08-22T14:12:12.179Z,25.59
2022-08-22T14:14:46.207Z,25.38
2022-08-22T14:17:23.589Z,25.79
2022-08-22T14:20:13.753Z,25.24
2022-08-22T14:23:04.830Z,25.68
2022-08-22T14:25:37.627Z,25.47
2022-08-22T14:28:21.074Z,25.31
2022-08-22T14:30:58.215Z,25.83
2022-08-22T14:33:49.428Z,25.82
2022-08-22T14:36:25.573Z,25.15
2022-08-22T14:39:11.582Z,25.89
2022-08-22T14:41:52.898Z,25.62
2022-08-22T14:44:33.485Z,25.98
2022-08-22T14:47:02.268Z,25.79
2022-08-22T14:49:33.957Z,26.10
2022-08-22T14:52:19.538Z,25.93
2022-08-22T14:54:47.264Z,25.89
2022-08-22T14:57:15.018Z,26.20
2022-08-22T14:59:50.078Z,25.29
2022-08-22T15:02:30.753Z,26.07
2022-08-22T15:05:01.876Z,26.14
2022-08-22T15:07:36.279Z,26.10
2022-08-22T15:10:06.866Z,26.40
2022-08-22T15:12:47.827Z,25.94
2022-08-22T15:15:49.788Z,26.50
2022-08-22T15:18:28.009Z,26.55
2022-08-22T15:21:24.382Z,26.46
2022-08-22T15:23:53.835Z,26.18
2022-08-22T15:26:37.588Z,26.45
2022-08-22T15:29:15.322Z,26.14
2022-08-22T15:31:46.611Z,26.76
2022-08-22T15:34:32.866Z,26.58
2022-08-22T15:37:16.447Z,26.65
2022-08-22T15:40:12.065Z,26.50
2022-08-22T15:42:44.779Z,26.70
2022-08-22T15:45:19.973Z,26.68
2022-08-22T15:47:50.183Z,26.50
2022-08-22T15:50:33.958Z,26.62
2022-08-22T15:53:24.069Z,26.59
2022-08-22T15:56:05.196Z,26.57
2022-08-22T15:58:33.428Z,26.48
2022-08-22T16:01:19.208Z,25.89
2022-08-22T16:04:03.250Z,26.37
2022-08-22T16:06:50.538Z,26.16
2022-08-22T16:09:48.232Z,26.36
2022-08-22T16:12:31.786Z,26.04
2022-08-22T16:15:01.742Z,26.04
2022-08-22T16:17:28.796Z,26.36
2022-08-22T16:20:08.092Z,26.33
2022-08-22T16:22:56.094Z,26.30
2022-08-22T16:25:44.823Z,26.31
2022-08-22T16:28:56.862Z,26.30
2022-08-22T16:31:56.497Z,26.29
2022-08-22T16:34:38.764Z,25.91
2022-08-22T16:37:08.807Z,26.29
2022-08-22T16:40:04.645Z,26.30
2022-08-22T16:42:35.593Z,26.29
2022-08-22T16:45:11.755Z,26.26
2022-08-22T16:47:58.159Z,26.30
2022-08-22T16:50:30.942Z,26.15
2022-08-22T16:53:01.433Z,26.26
2022-08-22T16:55:31.912Z,26.22
2022-08-22T16:58:06.997Z,26.19
2022-08-22T17:00:58.083Z,26.16
2022-08-22T17:03:51.975Z,26.13
2022-08-22T17:06:54.450Z,26.00
2022-08-22T17:09:43.650Z,26.07
2022-08-22T17:12:34.917Z,25.91
2022-08-22T17:15:22.104Z,26.03
2022-08-22T17:18:11.932Z,25.99
2022-08-22T17:20:54.458Z,25.96
2022-08-22T17:23:34.853Z,25.84
2022-08-22T17:26:34.431Z,25.50
2022-08-22T17:29:20.945Z,25.55
2022-08-22T17:32:17.307Z,25.82
2022-08-22T17:35:13.701Z,25.76
2022-08-22T17:38:23.473Z,25.63
2022-08-22T17:41:08.218Z,24.46
2022-08-22T17:44:03.764Z,25.63
2022-08-22T17:46:53.145Z,25.24
2022-08-22T17:49:41.320Z,25.55
2022-08-22T17:52:38.101Z,25.49
2022-08-22T17:55:33.781Z,24.94
2022-08-22T17:58:03.944Z,25.40
2022-08-22T18:00:36.141Z,25.13
2022-08-22T18:03:09.227Z,25.20
2022-08-22T18:05:49.445Z,25.21
2022-08-22T18:11:20.915Z,25.16
2022-08-22T18:14:05.266Z,25.11
2022-08-22T18:16:52.542Z,24.80
2022-08-22T18:19:41.105Z,25.00
2022-08-22T18:22:13.768Z,24.97
2022-08-22T18:25:00.661Z,24.77
2022-08-22T18:27:36.349Z,24.86
2022-08-22T18:30:20.495Z,24.82
2022-08-22T18:32:52.436Z,24.76
2022-08-22T18:35:30.288Z,24.52
2022-08-22T18:38:20.216Z,24.53
2022-08-22T18:40:51.968Z,24.22
2022-08-22T18:43:26.157Z,24.29
2022-08-22T18:45:57.361Z,24.33
2022-08-22T18:48:45.978Z,24.32
2022-08-22T18:51:30.433Z,24.31
2022-08-22T18:54:11.187Z,24.24
2022-08-22T18:57:00.046Z,24.18
2022-08-22T18:59:42.125Z,23.84
2022-08-22T19:02:27.209Z,24.08
2022-08-22T19:05:13.817Z,24.00
2022-08-22T19:07:51.127Z,23.95
2022-08-22T19:10:34.442Z,23.88
2022-08-22T19:13:30.501Z,23.81
2022-08-22T19:16:43.766Z,23.73
2022-08-22T19:19:56.074Z,23.67
2022-08-22T19:22:30.272Z,23.48
2022-08-22T19:25:17.701Z,23.61
2022-08-22T19:28:11.898Z,23.57
2022-08-22T19:31:16.496Z,23.54
2022-08-22T19:34:08.732Z,23.15
2022-08-22T19:36:36.221Z,23.44
2022-08-22T19:39:32.710Z,23.14
2022-08-22T19:42:01.605Z,23.35
2022-08-22T19:44:32.994Z,23.32
2022-08-22T19:47:18.232Z,23.14
2022-08-22T19:50:05.364Z,23.15
2022-08-22T19:52:46.565Z,23.13
2022-08-22T19:55:38.221Z,23.08
2022-08-22T19:58:32.548Z,23.02
2022-08-22T20:01:31.825Z,22.98
2022-08-22T20:04:20.709Z,22.94
2022-08-22T20:07:22.801Z,22.89
2022-08-22T20:10:37.085Z,22.55
2022-08-22T20:13:19.051Z,22.74
2022-08-22T20:16:23.623Z,22.74
2022-08-22T20:19:06.530Z,22.30
2022-08-22T20:21:44.173Z,22.69
2022-08-22T20:24:39.756Z,22.02
2022-08-22T20:27:18.610Z,22.44
2022-08-22T20:29:55.780Z,22.59
2022-08-22T20:32:24.383Z,22.01
2022-08-22T20:34:59.231Z,22.51
2022-08-22T20:38:02.807Z,22.29
2022-08-22T20:40:56.700Z,22.50
2022-08-22T20:43:45.808Z,22.38
2022-08-22T20:46:55.037Z,22.41
2022-08-22T20:49:42.421Z,22.07
2022-08-22T20:52:31.110Z,22.26
2022-08-22T20:55:21.656Z,22.30
2022-08-22T20:57:59.477Z,21.88
2022-08-22T21:00:47.941Z,22.23
2022-08-22T21:03:39.072Z,22.19
2022-08-22T21:06:16.784Z,21.74
2022-08-22T21:09:08.441Z,22.10
2022-08-22T21:11:41.727Z,21.93
2022-08-22T21:14:21.387Z,21.99
2022-08-22T21:16:49.054Z,21.75
2022-08-22T21:19:32.788Z,21.97
2022-08-22T21:22:25.894Z,21.97
2022-08-22T21:24:56.626Z,21.82
2022-08-22T21:27:34.042Z,21.93
2022-08-22T21:30:02.956Z,21.76
2022-08-22T21:32:37.786Z,21.64
2022-08-22T21:35:05.345Z,21.91
2022-08-22T21:37:35.801Z,21.79
2022-08-22T21:40:16.149Z,21.88
2022-08-22T21:42:45.435Z,21.45
2022-08-22T21:45:26.367Z,21.46
2022-08-22T21:47:53.546Z,21.69
2022-08-22T21:50:23.578Z,21.77
2022-08-22T21:52:56.388Z,21.74
2022-08-22T21:55:24.004Z,21.72
2022-08-22T21:58:08.968Z,21.65
2022-08-22T22:00:49.467Z,21.57
2022-08-22T22:03:19.601Z,21.11
2022-08-22T22:05:47.165Z,21.11
2022-08-22T22:08:14.092Z,21.20
2022-08-22T22:10:42.487Z,21.02
2022-08-22T22:13:09.995Z,21.41
2022-08-22T22:15:46.500Z,21.05
2022-08-22T22:18:15.235Z,21.18
2022-08-22T22:20:42.584Z,20.87
2022-08-22T22:23:10.004Z,21.24
2022-08-22T22:25:40.263Z,20.88
2022-08-22T22:28:21.908Z,21.18
2022-08-22T22:30:53.464Z,20.96
2022-08-22T22:33:21.637Z,20.70
2022-08-22T22:35:48.638Z,20.70
2022-08-22T22:38:16.956Z,20.93
2022-08-22T22:40:46.400Z,21.12
2022-08-22T22:43:13.627Z,20.84
2022-08-22T22:45:40.993Z,21.11
2022-08-22T22:48:08.327Z,20.77
2022-08-22T22:50:40.682Z,21.04
2022-08-22T22:53:09.489Z,20.78
2022-08-22T22:55:37.044Z,20.60
2022-08-22T22:58:08.757Z,20.37
2022-08-22T23:00:37.436Z,20.76
2022-08-22T23:03:05.440Z,20.96
2022-08-22T23:05:33.755Z,20.77
2022-08-22T23:08:01.146Z,20.88
2022-08-22T23:10:29.226Z,20.47
2022-08-22T23:12:56.909Z,20.41
2022-08-22T23:15:24.073Z,20.56
2022-08-22T23:17:51.233Z,20.78
2022-08-22T23:20:18.536Z,20.78
2022-08-22T23:22:46.041Z,20.78
2022-08-22T23:25:13.098Z,20.90
2022-08-22T23:27:40.344Z,20.42
2022-08-22T23:30:11.222Z,20.45
2022-08-22T23:32:38.186Z,20.48
2022-08-22T23:35:05.985Z,20.54
2022-08-22T23:37:33.112Z,20.81
2022-08-22T23:40:01.421Z,20.78
2022-08-22T23:42:29.866Z,19.70
2022-08-22T23:44:56.809Z,20.60
2022-08-22T23:47:23.803Z,20.33
2022-08-22T23:49:50.941Z,20.64
2022-08-22T23:52:17.889Z,20.55
2022-08-22T23:54:44.857Z,20.47
2022-08-22T23:57:12.834Z,20.40
2022-08-22T23:59:44.567Z,20.21
